createdAt,value
2022-12-29T00:00:09.572Z,139.48
2022-12-29T00:02:44.553Z,138.38
2022-12-29T00:05:14.020Z,140.60
2022-12-29T00:07:43.508Z,128.73
2022-12-29T00:10:11.608Z,110.70
2022-12-29T00:12:57.001Z,117.85
2022-12-29T00:15:39.027Z,117.57
2022-12-29T00:18:06.368Z,134.77
2022-12-29T00:20:57.512Z,104.03
2022-12-29T00:23:43.657Z,137.68
2022-12-29T00:26:39.189Z,118.20
2022-12-29T00:29:28.135Z,117.75
2022-12-29T00:32:17.365Z,106.60
2022-12-29T00:35:03.301Z,139.90
2022-12-29T00:37:49.047Z,117.03
2022-12-29T00:40:37.098Z,104.22
2022-12-29T00:43:28.604Z,132.70
2022-12-29T00:45:56.055Z,132.35
2022-12-29T00:48:44.036Z,146.40
2022-12-29T00:51:20.774Z,145.40
2022-12-29T00:53:47.469Z,157.95
2022-12-29T00:56:14.306Z,142.82
2022-12-29T00:58:40.979Z,145.70
2022-12-29T01:01:10.089Z,130.60
2022-12-29T01:03:38.450Z,125.18
2022-12-29T01:06:10.001Z,148.10
2022-12-29T01:08:40.750Z,107.93
2022-12-29T01:11:10.365Z,126.68
2022-12-29T01:13:39.248Z,136.80
2022-12-29T01:16:09.173Z,138.05
2022-12-29T01:18:36.098Z,138.68
2022-12-29T01:21:05.257Z,135.50
2022-12-29T01:23:34.363Z,140.65
2022-12-29T01:26:12.426Z,139.00
2022-12-29T01:28:42.631Z,138.75
2022-12-29T01:31:11.048Z,142.55
2022-12-29T01:33:37.921Z,150.27
2022-12-29T01:36:06.657Z,140.32
2022-12-29T01:38:35.837Z,147.65
2022-12-29T01:41:06.221Z,166.00
2022-12-29T01:43:44.552Z,159.25
2022-12-29T01:46:21.708Z,153.50
2022-12-29T01:48:50.525Z,145.77
2022-12-29T01:51:17.899Z,156.73
2022-12-29T01:53:46.045Z,158.20
2022-12-29T01:56:24.989Z,160.48
2022-12-29T01:59:00.128Z,137.90
2022-12-29T02:01:28.269Z,143.50
2022-12-29T02:03:58.134Z,155.30
2022-12-29T02:06:36.617Z,162.95
2022-12-29T02:09:09.588Z,164.05
2022-12-29T02:11:37.464Z,149.38
2022-12-29T02:14:10.334Z,145.27
2022-12-29T02:20:04.785Z,152.07
2022-12-29T02:23:13.001Z,132.73
2022-12-29T02:26:09.175Z,148.60
2022-12-29T02:28:57.809Z,147.60
2022-12-29T02:31:30.577Z,120.97
2022-12-29T02:34:34.611Z,152.82
2022-12-29T02:37:12.769Z,148.73
2022-12-29T02:40:00.005Z,135.20
2022-12-29T02:42:40.972Z,152.57
2022-12-29T02:45:27.650Z,142.57
2022-12-29T02:48:15.572Z,149.23
2022-12-29T02:50:51.987Z,130.00
2022-12-29T02:53:42.597Z,116.15
2022-12-29T02:56:10.227Z,120.68
2022-12-29T02:58:36.980Z,123.45
2022-12-29T03:02:10.973Z,111.47
2022-12-29T03:05:15.819Z,141.90
2022-12-29T03:07:48.396Z,132.63
2022-12-29T03:10:42.003Z,140.95
2022-12-29T03:14:09.335Z,145.98
2022-12-29T03:16:50.654Z,149.07
2022-12-29T03:19:47.556Z,154.35
2022-12-29T03:22:37.050Z,150.38
2022-12-29T03:25:17.355Z,152.65
2022-12-29T03:27:54.502Z,148.88
2022-12-29T03:30:21.505Z,144.75
2022-12-29T03:32:59.046Z,117.97
2022-12-29T03:35:29.097Z,126.60
2022-12-29T03:38:18.518Z,138.75
2022-12-29T03:40:50.779Z,128.50
2022-12-29T03:43:19.074Z,132.40
2022-12-29T03:45:46.049Z,153.18
2022-12-29T03:48:13.020Z,138.65
2022-12-29T03:50:39.716Z,120.18
2022-12-29T03:53:06.470Z,137.93
2022-12-29T03:55:33.183Z,141.13
2022-12-29T03:58:00.557Z,140.63
2022-12-29T04:00:27.256Z,139.68
2022-12-29T04:02:54.038Z,138.98
2022-12-29T04:05:26.089Z,112.90
2022-12-29T04:07:52.832Z,141.32
2022-12-29T04:10:19.726Z,137.57
2022-12-29T04:12:47.686Z,142.90
2022-12-29T04:15:14.560Z,130.13
2022-12-29T04:17:49.950Z,125.72
2022-12-29T04:20:36.506Z,135.85
2022-12-29T04:23:19.850Z,134.82
2022-12-29T04:25:48.504Z,149.02
2022-12-29T04:28:18.809Z,138.93
2022-12-29T04:30:46.943Z,145.20
2022-12-29T04:33:17.180Z,148.52
2022-12-29T04:35:46.219Z,155.68
2022-12-29T04:38:13.102Z,141.82
2022-12-29T04:40:41.488Z,150.90
2022-12-29T04:43:09.241Z,146.65
2022-12-29T04:45:40.421Z,140.32
2022-12-29T04:48:07.572Z,155.57
2022-12-29T04:50:34.299Z,151.02
2022-12-29T04:53:01.708Z,149.65
2022-12-29T04:55:31.433Z,156.10
2022-12-29T04:58:01.320Z,149.68
2022-12-29T05:00:28.162Z,139.48
2022-12-29T05:03:01.602Z,155.82
2022-12-29T05:05:28.403Z,155.00
2022-12-29T05:07:55.149Z,155.73
2022-12-29T05:10:30.470Z,159.35
2022-12-29T05:12:57.056Z,149.10
2022-12-29T05:15:32.864Z,142.27
2022-12-29T05:18:00.002Z,159.65
2022-12-29T05:20:26.665Z,120.18
2022-12-29T05:22:53.321Z,117.60
2022-12-29T05:25:20.005Z,121.95
2022-12-29T05:27:46.788Z,144.18
2022-12-29T05:30:13.777Z,127.93
2022-12-29T05:32:41.001Z,144.93
2022-12-29T05:35:08.200Z,136.55
2022-12-29T05:37:38.050Z,158.02
2022-12-29T05:40:05.363Z,141.55
2022-12-29T05:42:31.996Z,159.55
2022-12-29T05:44:59.429Z,149.77
2022-12-29T05:47:27.344Z,158.20
2022-12-29T05:49:54.032Z,151.43
2022-12-29T05:52:20.783Z,154.85
2022-12-29T05:54:47.524Z,153.90
2022-12-29T05:57:20.313Z,162.38
2022-12-29T05:59:47.054Z,160.90
2022-12-29T06:02:20.793Z,153.00
2022-12-29T06:04:47.507Z,149.52
2022-12-29T06:07:14.245Z,175.65
2022-12-29T06:09:40.921Z,156.85
2022-12-29T06:12:07.888Z,175.13
2022-12-29T06:14:34.617Z,163.77
2022-12-29T06:17:03.901Z,132.07
2022-12-29T06:19:36.844Z,164.35
2022-12-29T06:22:03.981Z,163.25
2022-12-29T06:24:37.931Z,138.25
2022-12-29T06:27:11.706Z,165.20
2022-12-29T06:29:43.128Z,169.50
2022-12-29T06:32:10.187Z,136.57
2022-12-29T06:34:38.975Z,165.00
2022-12-29T06:37:05.964Z,174.95
2022-12-29T06:39:32.744Z,172.18
2022-12-29T06:41:59.486Z,162.13
2022-12-29T06:44:28.697Z,170.52
2022-12-29T06:46:55.736Z,169.05
2022-12-29T06:49:25.413Z,167.55
2022-12-29T06:51:52.091Z,167.80
2022-12-29T06:54:18.716Z,185.90
2022-12-29T06:56:48.474Z,174.65
2022-12-29T06:59:15.189Z,176.20
2022-12-29T07:01:41.963Z,181.18
2022-12-29T07:04:08.747Z,187.13
2022-12-29T07:06:35.564Z,179.00
2022-12-29T07:09:02.233Z,175.63
2022-12-29T07:11:28.980Z,166.55
2022-12-29T07:14:02.039Z,175.25
2022-12-29T07:16:30.440Z,168.23
2022-12-29T07:18:58.093Z,176.20
2022-12-29T07:21:24.847Z,185.30
2022-12-29T07:23:53.562Z,184.23
2022-12-29T07:26:22.025Z,175.75
2022-12-29T07:28:52.126Z,183.73
2022-12-29T07:31:21.647Z,198.43
2022-12-29T07:33:57.450Z,203.07
2022-12-29T07:36:26.067Z,205.75
2022-12-29T07:38:56.261Z,186.05
2022-12-29T07:41:23.205Z,205.80
2022-12-29T07:43:49.984Z,187.55
2022-12-29T07:46:54.219Z,201.18
2022-12-29T07:49:03.429Z,198.57
2022-12-29T07:51:30.137Z,205.95
2022-12-29T07:53:56.791Z,192.00
2022-12-29T07:56:23.487Z,189.05
2022-12-29T07:58:50.362Z,171.88
2022-12-29T08:01:17.315Z,184.95
2022-12-29T08:03:44.118Z,182.35
2022-12-29T08:06:13.959Z,189.07
2022-12-29T08:08:44.055Z,190.85
2022-12-29T08:11:10.815Z,170.80
2022-12-29T08:13:37.616Z,178.27
2022-12-29T08:16:04.634Z,175.20
2022-12-29T08:18:35.597Z,183.80
2022-12-29T08:21:05.764Z,182.98
2022-12-29T08:23:35.654Z,176.15
2022-12-29T08:26:09.291Z,177.18
2022-12-29T08:28:35.979Z,173.30
2022-12-29T08:31:04.147Z,178.25
2022-12-29T08:33:31.399Z,171.07
2022-12-29T08:36:06.009Z,180.90
2022-12-29T08:38:33.718Z,166.73
2022-12-29T08:41:10.465Z,179.25
2022-12-29T08:43:39.058Z,162.50
2022-12-29T08:46:05.833Z,170.80
2022-12-29T08:48:32.584Z,164.68
2022-12-29T08:50:59.283Z,176.98
2022-12-29T08:53:26.497Z,157.38
2022-12-29T08:56:04.037Z,172.50
2022-12-29T08:58:32.046Z,160.60
2022-12-29T09:00:59.776Z,159.75
2022-12-29T09:03:54.925Z,156.82
2022-12-29T09:06:15.140Z,156.88
2022-12-29T09:08:45.569Z,165.98
2022-12-29T09:11:19.033Z,161.70
2022-12-29T09:13:46.344Z,153.80
2022-12-29T09:16:15.769Z,156.20
2022-12-29T09:18:43.304Z,137.82
2022-12-29T09:21:12.041Z,150.73
2022-12-29T09:23:39.502Z,140.90
2022-12-29T09:26:06.756Z,153.82
2022-12-29T09:28:39.715Z,139.27
2022-12-29T09:31:06.708Z,144.13
2022-12-29T09:33:39.352Z,147.98
2022-12-29T09:36:06.382Z,153.82
2022-12-29T09:38:33.333Z,147.95
2022-12-29T09:41:23.089Z,172.80
2022-12-29T09:44:01.920Z,162.98
2022-12-29T09:46:50.978Z,131.43
2022-12-29T09:49:27.410Z,154.13
2022-12-29T09:51:59.266Z,149.38
2022-12-29T09:54:39.508Z,160.85
2022-12-29T09:57:18.865Z,147.73
2022-12-29T09:59:47.515Z,156.35
2022-12-29T10:02:41.402Z,151.80
2022-12-29T10:05:28.096Z,160.30
2022-12-29T10:08:22.580Z,140.10
2022-12-29T10:11:16.518Z,147.38
2022-12-29T10:14:16.293Z,155.90
2022-12-29T10:16:46.173Z,132.27
2022-12-29T10:19:35.305Z,126.45
2022-12-29T10:22:30.388Z,133.65
2022-12-29T10:25:03.878Z,157.18
2022-12-29T10:27:35.694Z,152.88
2022-12-29T10:30:03.778Z,155.50
2022-12-29T10:32:48.099Z,151.18
2022-12-29T10:35:17.504Z,145.80
2022-12-29T10:38:08.905Z,146.30
2022-12-29T10:40:46.469Z,152.03
2022-12-29T10:43:36.471Z,156.85
2022-12-29T10:46:10.792Z,148.43
2022-12-29T10:48:37.742Z,149.55
2022-12-29T10:51:07.419Z,159.32
2022-12-29T10:53:51.525Z,153.70
2022-12-29T10:56:30.736Z,144.82
2022-12-29T10:59:04.407Z,141.23
2022-12-29T11:01:52.345Z,138.27
2022-12-29T11:04:29.602Z,149.35
2022-12-29T11:06:58.635Z,139.32
2022-12-29T11:09:42.181Z,147.68
2022-12-29T11:12:30.204Z,140.20
2022-12-29T11:15:09.071Z,147.82
2022-12-29T11:18:00.681Z,149.48
2022-12-29T11:20:40.625Z,113.78
2022-12-29T11:23:26.200Z,118.95
2022-12-29T11:26:16.612Z,134.57
2022-12-29T11:28:49.513Z,133.70
2022-12-29T11:31:23.021Z,137.77
2022-12-29T11:33:52.970Z,144.27
2022-12-29T11:36:27.828Z,137.30
2022-12-29T11:38:56.673Z,144.45
2022-12-29T11:41:30.804Z,138.60
2022-12-29T11:44:02.584Z,129.80
2022-12-29T11:46:39.336Z,119.32
2022-12-29T11:49:07.131Z,128.50
2022-12-29T11:51:47.832Z,119.50
2022-12-29T11:54:47.495Z,116.53
2022-12-29T11:57:18.424Z,110.13
2022-12-29T11:59:53.325Z,111.07
2022-12-29T12:02:42.956Z,117.90
2022-12-29T12:05:16.964Z,122.93
2022-12-29T12:07:48.093Z,117.07
2022-12-29T12:10:23.756Z,97.07
2022-12-29T12:13:17.470Z,117.55
2022-12-29T12:15:56.122Z,135.35
2022-12-29T12:19:11.149Z,120.35
2022-12-29T12:21:47.687Z,115.80
2022-12-29T12:24:52.295Z,122.28
2022-12-29T12:27:27.476Z,126.18
2022-12-29T12:30:04.518Z,122.75
2022-12-29T12:32:46.752Z,120.10
2022-12-29T12:35:29.715Z,118.32
2022-12-29T12:38:02.509Z,107.72
2022-12-29T12:40:53.889Z,106.72
2022-12-29T12:43:29.776Z,109.97
2022-12-29T12:46:29.057Z,136.35
2022-12-29T12:49:22.377Z,130.02
2022-12-29T12:52:32.636Z,105.43
2022-12-29T12:55:11.675Z,111.78
2022-12-29T12:57:46.647Z,109.60
2022-12-29T13:00:21.411Z,109.90
2022-12-29T13:03:03.410Z,127.10
2022-12-29T13:05:49.075Z,116.82
2022-12-29T13:08:37.006Z,103.10
2022-12-29T13:11:15.893Z,97.45
2022-12-29T13:13:57.855Z,110.90
2022-12-29T13:16:42.640Z,100.40
2022-12-29T13:19:22.177Z,96.63
2022-12-29T13:22:26.219Z,104.70
2022-12-29T13:24:52.930Z,109.50
2022-12-29T13:27:39.636Z,129.57
2022-12-29T13:30:15.427Z,111.13
2022-12-29T13:32:51.212Z,136.88
2022-12-29T13:36:02.468Z,120.75
2022-12-29T13:38:49.758Z,121.90
2022-12-29T13:41:35.291Z,104.72
2022-12-29T13:44:04.469Z,144.95
2022-12-29T13:46:40.805Z,114.53
2022-12-29T13:49:21.138Z,127.35
2022-12-29T13:51:54.122Z,133.60
2022-12-29T13:54:28.601Z,135.70
2022-12-29T13:57:16.395Z,115.25
2022-12-29T14:00:00.635Z,118.40
2022-12-29T14:03:04.256Z,112.22
2022-12-29T14:05:34.886Z,116.13
2022-12-29T14:08:08.252Z,107.60
2022-12-29T14:10:53.429Z,113.47
2022-12-29T14:13:24.721Z,104.18
2022-12-29T14:15:59.053Z,107.50
2022-12-29T14:18:32.741Z,103.32
2022-12-29T14:21:11.579Z,96.25
2022-12-29T14:23:49.687Z,98.68
2022-12-29T14:26:36.601Z,95.55
2022-12-29T14:29:25.499Z,89.28
2022-12-29T14:31:53.789Z,95.95
2022-12-29T14:34:35.001Z,99.68
2022-12-29T14:37:06.144Z,97.80
2022-12-29T14:39:47.356Z,111.35
2022-12-29T14:42:18.570Z,89.23
2022-12-29T14:44:48.565Z,103.05
2022-12-29T14:47:38.031Z,94.00
2022-12-29T14:50:26.522Z,87.80
2022-12-29T14:53:04.701Z,88.70
2022-12-29T14:55:53.228Z,100.82
2022-12-29T14:58:29.091Z,95.20
2022-12-29T15:00:59.578Z,100.97
2022-12-29T15:03:33.132Z,92.22
2022-12-29T15:06:09.392Z,86.78
2022-12-29T15:08:50.247Z,97.25
2022-12-29T15:11:31.661Z,91.32
2022-12-29T15:13:58.338Z,83.55
2022-12-29T15:16:24.986Z,103.07
2022-12-29T15:18:55.089Z,92.75
2022-12-29T15:21:27.331Z,101.65
2022-12-29T15:24:06.154Z,90.03
2022-12-29T15:26:45.154Z,99.28
2022-12-29T15:29:33.486Z,87.65
2022-12-29T15:32:02.333Z,97.43
2022-12-29T15:34:35.592Z,85.72
2022-12-29T15:37:07.518Z,83.28
2022-12-29T15:42:17.582Z,85.70
2022-12-29T15:44:45.738Z,86.22
2022-12-29T15:47:22.017Z,89.22
2022-12-29T15:49:54.956Z,86.60
2022-12-29T15:52:24.730Z,81.97
2022-12-29T15:54:56.650Z,82.47
2022-12-29T16:03:25.605Z,81.57
2022-12-29T16:05:57.969Z,84.72
2022-12-29T16:08:41.038Z,86.22
2022-12-29T16:11:27.096Z,82.25
2022-12-29T16:13:56.013Z,82.18
2022-12-29T16:16:42.398Z,77.55
2022-12-29T16:19:22.678Z,74.30
2022-12-29T16:21:49.711Z,78.72
2022-12-29T16:24:19.828Z,88.95
2022-12-29T16:26:50.309Z,72.82
2022-12-29T16:29:22.797Z,79.35
2022-12-29T16:32:06.476Z,96.97
2022-12-29T16:34:41.102Z,82.05
2022-12-29T16:37:28.832Z,77.22
2022-12-29T16:39:59.637Z,85.97
2022-12-29T16:42:40.013Z,82.25
2022-12-29T16:45:24.873Z,66.75
2022-12-29T16:48:06.795Z,95.45
2022-12-29T16:50:43.976Z,89.63
2022-12-29T16:53:41.777Z,91.78
2022-12-29T16:56:20.976Z,79.65
2022-12-29T16:59:09.179Z,82.93
2022-12-29T17:01:41.450Z,75.22
2022-12-29T17:04:13.855Z,85.43
2022-12-29T17:06:41.708Z,79.57
2022-12-29T17:09:31.639Z,76.25
2022-12-29T17:12:10.865Z,78.57
2022-12-29T17:14:45.683Z,79.75
2022-12-29T17:17:35.514Z,88.90
2022-12-29T17:20:06.439Z,91.53
2022-12-29T17:22:40.036Z,83.50
2022-12-29T17:25:08.287Z,102.68
2022-12-29T17:27:43.017Z,84.65
2022-12-29T17:30:18.873Z,91.60
2022-12-29T17:32:54.180Z,104.97
2022-12-29T17:35:24.459Z,86.85
2022-12-29T17:37:57.428Z,88.18
2022-12-29T17:40:33.616Z,99.85
2022-12-29T17:43:03.411Z,85.00
2022-12-29T17:45:34.221Z,91.20
2022-12-29T17:48:02.141Z,86.60
2022-12-29T17:50:31.552Z,88.63
2022-12-29T17:53:15.646Z,105.82
2022-12-29T17:55:43.101Z,84.13
2022-12-29T17:58:34.684Z,91.82
2022-12-29T18:01:02.730Z,88.20
2022-12-29T18:03:36.022Z,91.07
2022-12-29T18:06:06.792Z,94.45
2022-12-29T18:08:35.486Z,85.47
2022-12-29T18:11:23.360Z,97.05
2022-12-29T18:13:53.269Z,88.13
2022-12-29T18:16:21.885Z,85.82
2022-12-29T18:18:48.599Z,97.30
2022-12-29T18:21:18.971Z,88.43
2022-12-29T18:23:46.894Z,104.88
2022-12-29T18:26:27.771Z,85.43
2022-12-29T18:28:56.112Z,97.28
2022-12-29T18:31:31.825Z,89.75
2022-12-29T18:34:01.091Z,93.63
2022-12-29T18:36:28.055Z,95.57
2022-12-29T18:38:55.618Z,93.00
2022-12-29T18:41:32.261Z,87.47
2022-12-29T18:44:07.031Z,92.90
2022-12-29T18:46:34.421Z,90.18
2022-12-29T18:49:01.108Z,98.28
2022-12-29T18:51:28.043Z,88.22
2022-12-29T18:53:55.010Z,90.22
2022-12-29T18:56:27.343Z,98.88
2022-12-29T18:58:57.761Z,94.03
2022-12-29T19:01:33.065Z,94.10
2022-12-29T19:03:59.967Z,98.55
2022-12-29T19:06:29.380Z,87.57
2022-12-29T19:08:56.463Z,91.20
2022-12-29T19:11:24.558Z,92.53
2022-12-29T19:13:53.382Z,89.53
2022-12-29T19:16:27.044Z,89.95
2022-12-29T19:19:09.027Z,106.07
2022-12-29T19:21:38.926Z,117.38
2022-12-29T19:24:06.183Z,122.22
2022-12-29T19:26:37.715Z,99.75
2022-12-29T19:29:11.786Z,114.40
2022-12-29T19:31:41.365Z,117.00
2022-12-29T19:34:08.428Z,116.82
2022-12-29T19:36:35.486Z,109.85
2022-12-29T19:39:06.816Z,95.95
2022-12-29T19:41:33.558Z,101.22
2022-12-29T19:44:04.409Z,125.35
2022-12-29T19:46:35.263Z,120.55
2022-12-29T19:49:02.510Z,130.20
2022-12-29T19:51:29.259Z,118.63
2022-12-29T19:53:56.180Z,119.53
2022-12-29T19:56:23.509Z,121.45
2022-12-29T19:58:51.113Z,123.20
2022-12-29T20:01:25.766Z,128.32
2022-12-29T20:03:52.920Z,115.72
2022-12-29T20:06:20.139Z,111.68
2022-12-29T20:08:47.176Z,129.05
2022-12-29T20:11:18.384Z,110.03
2022-12-29T20:13:45.967Z,116.10
2022-12-29T20:16:19.343Z,111.28
2022-12-29T20:18:49.407Z,110.93
2022-12-29T20:21:25.665Z,105.63
2022-12-29T20:23:58.964Z,107.18
2022-12-29T20:26:28.939Z,105.00
2022-12-29T20:28:58.175Z,106.75
2022-12-29T20:31:29.631Z,100.57
2022-12-29T20:33:58.863Z,110.25
2022-12-29T20:36:31.376Z,114.15
2022-12-29T20:39:00.580Z,99.05
2022-12-29T20:41:31.344Z,104.07
2022-12-29T20:44:01.217Z,112.57
2022-12-29T20:46:35.046Z,99.47
2022-12-29T20:49:07.584Z,102.47
2022-12-29T20:52:04.338Z,102.25
2022-12-29T20:54:24.625Z,107.30
2022-12-29T20:56:52.563Z,99.70
2022-12-29T20:59:27.801Z,92.88
2022-12-29T21:01:56.569Z,105.88
2022-12-29T21:04:26.501Z,96.45
2022-12-29T21:06:53.390Z,113.18
2022-12-29T21:09:25.905Z,109.28
2022-12-29T21:11:52.964Z,104.03
2022-12-29T21:14:19.643Z,105.53
2022-12-29T21:16:50.154Z,99.43
2022-12-29T21:19:26.395Z,103.78
2022-12-29T21:21:54.036Z,91.63
2022-12-29T21:24:26.309Z,89.93
2022-12-29T21:26:53.298Z,102.93
2022-12-29T21:29:20.153Z,93.70
2022-12-29T21:31:49.856Z,80.47
2022-12-29T21:34:16.620Z,109.28
2022-12-29T21:36:43.343Z,86.28
2022-12-29T21:39:10.522Z,125.22
2022-12-29T21:41:37.261Z,118.38
2022-12-29T21:44:23.128Z,90.15
2022-12-29T21:46:52.046Z,96.03
2022-12-29T21:49:18.853Z,100.57
2022-12-29T21:51:51.774Z,82.70
2022-12-29T21:54:48.234Z,85.47
2022-12-29T21:57:40.309Z,122.57
2022-12-29T22:00:27.774Z,92.68
2022-12-29T22:03:23.012Z,97.32
2022-12-29T22:06:17.379Z,102.35
2022-12-29T22:09:03.923Z,109.10
2022-12-29T22:11:48.916Z,97.65
2022-12-29T22:14:15.623Z,99.82
2022-12-29T22:16:42.319Z,110.13
2022-12-29T22:19:15.477Z,100.82
2022-12-29T22:21:42.713Z,107.57
2022-12-29T22:24:10.045Z,102.22
2022-12-29T22:26:36.651Z,107.72
2022-12-29T22:29:14.458Z,114.25
2022-12-29T22:31:43.446Z,120.70
2022-12-29T22:34:11.565Z,109.22
2022-12-29T22:36:41.321Z,102.28
2022-12-29T22:39:08.855Z,147.38
2022-12-29T22:41:37.033Z,115.78
2022-12-29T22:44:05.184Z,145.93
2022-12-29T22:46:31.970Z,116.13
2022-12-29T22:48:59.875Z,114.53
2022-12-29T22:51:26.743Z,114.32
2022-12-29T22:53:53.939Z,141.75
2022-12-29T22:56:20.688Z,124.55
2022-12-29T22:58:48.569Z,113.05
2022-12-29T23:01:17.627Z,107.93
2022-12-29T23:03:44.972Z,115.70
2022-12-29T23:06:16.440Z,119.10
2022-12-29T23:08:44.133Z,123.70
2022-12-29T23:11:13.087Z,105.45
2022-12-29T23:13:41.193Z,114.10
2022-12-29T23:16:10.483Z,116.82
2022-12-29T23:18:40.514Z,106.57
2022-12-29T23:21:08.146Z,138.55
2022-12-29T23:23:58.346Z,112.88
2022-12-29T23:26:33.884Z,113.05
2022-12-29T23:29:03.194Z,153.75
2022-12-29T23:31:33.782Z,133.80
2022-12-29T23:34:02.881Z,129.48
2022-12-29T23:36:32.511Z,153.27
2022-12-29T23:38:59.799Z,139.88
2022-12-29T23:41:27.325Z,183.38
2022-12-29T23:44:00.251Z,115.45
2022-12-29T23:46:33.658Z,159.63
2022-12-29T23:49:00.657Z,132.27
2022-12-29T23:51:28.680Z,126.20
2022-12-29T23:53:55.537Z,117.22
2022-12-29T23:56:23.342Z,131.82
2022-12-29T23:58:51.426Z,181.70
